Terminal Aerodrome Forecast
Issued by NWS

Home | Current Version | Previous Version | Text Only | Print | Product List | Glossary On
Versions: 1 2 3 4 5 6 7 8 9 10 11 12 13 14 15 16 17 18 19 20 21 22 23 24 25 26 27 28 29 30 31 32 33 34
795
FTUS45 KBOI 221139
TAFJER
TAF
KJER 221139Z 2212/2312 VRB06KT P6SM SCT060
     FM221900 24014G24KT P6SM BKN060
     FM230100 23008KT P6SM OVC050=

USA.gov is the U.S. government's official web portal to all federal, state and local government web resources and services.